createdAt,value
2023-05-16T00:01:56.898Z,5.03
2023-05-16T00:04:28.153Z,5.10
2023-05-16T00:06:58.049Z,4.90
2023-05-16T00:09:28.158Z,4.87
2023-05-16T00:11:58.955Z,5.63
2023-05-16T00:14:30.471Z,4.83
2023-05-16T00:17:00.989Z,4.70
2023-05-16T00:19:30.662Z,4.57
2023-05-16T00:22:00.690Z,4.30
2023-05-16T00:24:30.551Z,4.90
2023-05-16T00:27:00.419Z,5.90
2023-05-16T00:29:31.978Z,6.07
2023-05-16T00:32:01.836Z,5.10
2023-05-16T00:34:31.755Z,6.10
2023-05-16T00:37:01.741Z,6.57
2023-05-16T00:39:33.104Z,6.87
2023-05-16T00:42:03.070Z,6.40
2023-05-16T00:44:34.607Z,6.42
2023-05-16T00:47:04.504Z,7.08
2023-05-16T00:49:35.403Z,7.22
2023-05-16T00:52:05.625Z,6.07
2023-05-16T00:54:36.029Z,7.13
2023-05-16T00:57:07.367Z,6.53
2023-05-16T00:59:38.566Z,6.90
2023-05-16T01:02:08.754Z,6.40
2023-05-16T01:04:41.390Z,5.57
2023-05-16T01:07:11.333Z,6.00
2023-05-16T01:09:41.736Z,6.40
2023-05-16T01:12:32.755Z,5.43
2023-05-16T01:15:08.296Z,5.15
2023-05-16T01:17:47.382Z,6.10
2023-05-16T01:20:39.436Z,5.77
2023-05-16T01:23:36.577Z,5.17
2023-05-16T01:26:23.387Z,5.83
2023-05-16T01:28:54.422Z,5.40
2023-05-16T01:31:25.063Z,5.58
2023-05-16T01:33:54.799Z,4.70
2023-05-16T01:36:33.826Z,4.80
2023-05-16T01:39:23.497Z,5.17
2023-05-16T01:42:08.917Z,4.80
2023-05-16T01:44:59.885Z,5.90
2023-05-16T01:47:33.435Z,5.83
2023-05-16T01:50:22.325Z,6.10
2023-05-16T01:52:55.184Z,6.17
2023-05-16T01:55:30.427Z,6.20
2023-05-16T01:58:04.709Z,6.60
2023-05-16T02:00:34.979Z,5.80
2023-05-16T02:03:04.805Z,6.50
2023-05-16T02:05:35.079Z,6.17
2023-05-16T02:08:05.949Z,6.30
2023-05-16T02:10:35.821Z,5.78
2023-05-16T02:13:06.312Z,6.08
2023-05-16T02:15:36.123Z,5.20
2023-05-16T02:18:07.373Z,5.45
2023-05-16T02:20:37.659Z,4.47
2023-05-16T02:23:07.247Z,4.30
2023-05-16T02:25:37.183Z,5.27
2023-05-16T02:28:06.994Z,5.43
2023-05-16T02:30:38.307Z,4.70
2023-05-16T02:33:07.944Z,5.22
2023-05-16T02:35:37.757Z,4.80
2023-05-16T02:38:09.660Z,4.55
2023-05-16T02:40:39.469Z,3.77
2023-05-16T02:43:10.226Z,4.53
2023-05-16T02:45:40.034Z,4.80
2023-05-16T02:48:09.604Z,4.73
2023-05-16T02:50:40.321Z,3.90
2023-05-16T02:53:09.836Z,3.63
2023-05-16T02:55:40.781Z,4.60
2023-05-16T02:58:10.796Z,4.33
2023-05-16T03:00:41.050Z,3.75
2023-05-16T03:03:11.807Z,4.07
2023-05-16T03:05:43.351Z,3.70
2023-05-16T03:08:13.111Z,3.30
2023-05-16T03:10:42.913Z,3.83
2023-05-16T03:13:12.743Z,3.67
2023-05-16T03:15:42.621Z,4.13
2023-05-16T03:18:12.388Z,4.20
2023-05-16T03:20:42.233Z,3.87
2023-05-16T03:23:11.815Z,3.97
2023-05-16T03:25:43.710Z,3.70
2023-05-16T03:28:15.219Z,4.37
2023-05-16T03:30:45.397Z,3.70
2023-05-16T03:33:19.215Z,3.90
2023-05-16T03:35:52.165Z,3.30
2023-05-16T03:38:21.657Z,3.20
2023-05-16T03:40:51.557Z,3.73
2023-05-16T03:43:21.402Z,4.20
2023-05-16T03:45:53.207Z,3.60
2023-05-16T03:48:23.822Z,3.63
2023-05-16T03:50:53.682Z,3.52
2023-05-16T03:53:23.217Z,3.93
2023-05-16T03:55:57.075Z,3.77
2023-05-16T03:58:27.031Z,3.50
2023-05-16T04:00:56.848Z,4.13
2023-05-16T04:03:28.736Z,3.53
2023-05-16T04:06:01.166Z,3.65
2023-05-16T04:08:32.301Z,3.93
2023-05-16T04:11:01.885Z,3.65
2023-05-16T04:13:35.058Z,3.33
2023-05-16T04:16:07.321Z,3.58
2023-05-16T04:18:37.238Z,3.80
2023-05-16T04:21:07.761Z,3.30
2023-05-16T04:23:37.535Z,3.27
2023-05-16T04:26:08.705Z,4.07
2023-05-16T04:28:38.513Z,3.80
2023-05-16T04:31:08.528Z,3.40
2023-05-16T04:33:38.666Z,3.80
2023-05-16T04:36:08.485Z,3.10
2023-05-16T04:38:38.139Z,3.30
2023-05-16T04:41:07.948Z,3.43
2023-05-16T04:43:38.057Z,3.40
2023-05-16T04:46:08.328Z,3.60
2023-05-16T04:48:37.882Z,3.20
2023-05-16T04:51:11.952Z,3.63
2023-05-16T04:53:43.649Z,2.67
2023-05-16T04:56:13.211Z,3.27
2023-05-16T04:58:43.055Z,2.67
2023-05-16T05:01:12.684Z,2.80
2023-05-16T05:03:42.535Z,3.30
2023-05-16T05:06:12.296Z,3.17
2023-05-16T05:08:42.277Z,2.53
2023-05-16T05:11:11.808Z,2.90
2023-05-16T05:13:41.618Z,2.47
2023-05-16T05:16:12.316Z,2.50
2023-05-16T05:21:10.747Z,2.75
2023-05-16T05:23:41.410Z,2.27
2023-05-16T05:26:11.210Z,2.35
2023-05-16T05:28:47.786Z,2.52
2023-05-16T05:31:12.833Z,2.05
2023-05-16T05:33:42.600Z,2.50
2023-05-16T05:36:12.428Z,2.45
2023-05-16T05:38:42.522Z,2.55
2023-05-16T05:41:12.469Z,2.70
2023-05-16T05:43:42.092Z,1.87
2023-05-16T05:46:11.764Z,2.50
2023-05-16T05:48:41.643Z,2.53
2023-05-16T05:51:11.318Z,2.80
2023-05-16T05:53:42.085Z,3.37
2023-05-16T05:58:42.117Z,2.12
2023-05-16T06:01:14.864Z,2.15
2023-05-16T06:03:44.917Z,2.53
2023-05-16T06:06:15.375Z,3.30
2023-05-16T06:08:44.897Z,2.57
2023-05-16T06:11:14.524Z,2.33
2023-05-16T06:13:44.368Z,2.40
2023-05-16T06:16:14.215Z,2.60
2023-05-16T06:18:44.146Z,1.97
2023-05-16T06:21:13.700Z,2.23
2023-05-16T06:23:43.750Z,2.00
2023-05-16T06:26:16.343Z,2.43
2023-05-16T06:28:48.131Z,3.07
2023-05-16T06:31:17.670Z,2.47
2023-05-16T06:33:47.548Z,2.10
2023-05-16T06:36:17.073Z,2.50
2023-05-16T06:38:46.889Z,2.47
2023-05-16T06:41:16.481Z,2.93
2023-05-16T06:43:50.319Z,2.57
2023-05-16T06:46:22.189Z,2.77
2023-05-16T06:48:52.163Z,2.47
2023-05-16T06:51:21.715Z,2.90
2023-05-16T06:53:51.787Z,2.97
2023-05-16T06:56:21.648Z,2.60
2023-05-16T06:58:51.895Z,2.60
2023-05-16T07:01:21.659Z,2.40
2023-05-16T07:03:51.961Z,2.80
2023-05-16T07:06:21.575Z,2.42
2023-05-16T07:08:51.614Z,2.47
2023-05-16T07:11:21.439Z,2.00
2023-05-16T07:13:51.498Z,2.87
2023-05-16T07:16:21.143Z,2.47
2023-05-16T07:18:51.878Z,2.57
2023-05-16T07:21:21.811Z,2.50
2023-05-16T07:23:51.650Z,2.90
2023-05-16T07:26:23.251Z,2.60
2023-05-16T07:28:53.193Z,2.37
2023-05-16T07:31:24.169Z,2.90
2023-05-16T07:36:22.563Z,2.65
2023-05-16T07:38:52.305Z,3.03
2023-05-16T07:41:22.172Z,2.52
2023-05-16T07:43:51.902Z,2.53
2023-05-16T07:46:21.800Z,2.10
2023-05-16T07:48:51.976Z,2.63
2023-05-16T07:51:21.605Z,2.90
2023-05-16T07:53:52.082Z,3.50
2023-05-16T07:56:21.783Z,3.40
2023-05-16T07:58:51.809Z,3.20
2023-05-16T08:01:21.852Z,3.43
2023-05-16T08:03:53.514Z,3.40
2023-05-16T08:06:23.145Z,2.87
2023-05-16T08:08:53.086Z,2.80
2023-05-16T08:11:22.929Z,3.20
2023-05-16T08:13:52.878Z,3.20
2023-05-16T08:16:22.510Z,2.27
2023-05-16T08:18:52.506Z,2.90
2023-05-16T08:21:22.110Z,3.47
2023-05-16T08:23:51.997Z,2.37
2023-05-16T08:26:22.016Z,2.80
2023-05-16T08:28:51.878Z,2.50
2023-05-16T08:31:22.500Z,3.00
2023-05-16T08:33:52.396Z,2.37
2023-05-16T08:36:21.957Z,1.90
2023-05-16T08:38:51.997Z,2.33
2023-05-16T08:41:22.807Z,2.60
2023-05-16T08:43:53.437Z,2.47
2023-05-16T08:46:24.726Z,3.20
2023-05-16T08:48:56.958Z,2.60
2023-05-16T08:51:28.425Z,2.92
2023-05-16T08:54:07.305Z,2.35
2023-05-16T08:56:38.827Z,3.00
2023-05-16T08:59:09.049Z,2.60
2023-05-16T09:01:38.994Z,2.93
2023-05-16T09:04:10.403Z,2.83
2023-05-16T09:09:11.867Z,3.20
2023-05-16T09:11:43.123Z,2.80
2023-05-16T09:16:43.209Z,2.00
2023-05-16T09:19:14.859Z,2.80
2023-05-16T09:21:45.493Z,2.30
2023-05-16T09:24:15.078Z,3.05
2023-05-16T09:26:46.265Z,3.23
2023-05-16T09:31:45.636Z,2.70
2023-05-16T09:34:15.347Z,2.30
2023-05-16T09:36:45.193Z,2.30
2023-05-16T09:39:16.603Z,2.50
2023-05-16T09:41:46.555Z,2.23
2023-05-16T09:44:17.651Z,2.80
2023-05-16T09:49:18.396Z,3.17
2023-05-16T09:51:48.621Z,2.50
2023-05-16T09:54:20.149Z,3.00
2023-05-16T09:56:51.610Z,2.60
2023-05-16T09:59:22.600Z,2.50
2023-05-16T10:01:54.435Z,2.58
2023-05-16T10:04:26.347Z,2.62
2023-05-16T10:06:58.004Z,3.37
2023-05-16T10:09:30.040Z,2.63
2023-05-16T10:12:03.459Z,2.33
2023-05-16T10:14:38.006Z,3.30
2023-05-16T10:17:10.320Z,3.10
2023-05-16T10:19:41.942Z,2.67
2023-05-16T10:22:14.443Z,2.80
2023-05-16T10:24:50.032Z,3.17
2023-05-16T10:27:19.880Z,2.93
2023-05-16T10:29:54.711Z,3.30
2023-05-16T10:32:26.456Z,3.57
2023-05-16T10:34:57.021Z,4.77
2023-05-16T10:37:27.547Z,4.10
2023-05-16T10:39:58.175Z,4.30
2023-05-16T10:42:28.131Z,4.30
2023-05-16T10:45:17.648Z,3.90
2023-05-16T10:47:56.336Z,4.77
2023-05-16T10:50:40.463Z,4.03
2023-05-16T10:53:21.516Z,4.23
2023-05-16T10:58:39.770Z,3.90
2023-05-16T11:01:30.448Z,4.13
2023-05-16T11:04:08.889Z,4.28
2023-05-16T11:06:47.462Z,5.03
2023-05-16T11:09:27.737Z,4.73
2023-05-16T11:12:00.954Z,4.22
2023-05-16T11:14:38.667Z,4.60
2023-05-16T11:17:13.876Z,4.50
2023-05-16T11:19:49.492Z,4.97
2023-05-16T11:22:24.730Z,5.33
2023-05-16T11:25:03.453Z,5.27
2023-05-16T11:27:47.778Z,5.20
2023-05-16T11:30:22.558Z,4.90
2023-05-16T11:32:52.602Z,4.97
2023-05-16T11:35:22.761Z,5.40
2023-05-16T11:37:52.388Z,5.90
2023-05-16T11:40:22.427Z,5.35
2023-05-16T11:42:52.146Z,4.57
2023-05-16T11:45:26.773Z,4.53
2023-05-16T11:47:58.579Z,4.60
2023-05-16T11:50:28.634Z,4.53
2023-05-16T11:52:59.132Z,4.87
2023-05-16T11:58:07.327Z,4.92
2023-05-16T12:00:37.142Z,4.80
2023-05-16T12:03:08.123Z,5.77
2023-05-16T12:08:07.382Z,4.53
2023-05-16T12:10:37.211Z,5.73
2023-05-16T12:13:07.269Z,5.30
2023-05-16T12:15:37.227Z,5.40
2023-05-16T12:18:07.616Z,4.77
2023-05-16T12:20:37.451Z,4.87
2023-05-16T12:23:13.199Z,5.47
2023-05-16T12:25:49.225Z,5.73
2023-05-16T12:28:18.840Z,5.83
2023-05-16T12:30:48.781Z,5.53
2023-05-16T12:33:18.729Z,6.25
2023-05-16T12:35:48.911Z,6.00
2023-05-16T12:38:20.214Z,6.00
2023-05-16T12:40:50.079Z,6.13
2023-05-16T12:43:21.872Z,5.47
2023-05-16T12:45:55.171Z,6.00
2023-05-16T12:48:27.330Z,6.20
2023-05-16T12:50:57.217Z,5.23
2023-05-16T12:53:28.972Z,5.80
2023-05-16T12:55:58.906Z,6.73
2023-05-16T12:58:30.651Z,6.17
2023-05-16T13:01:00.573Z,7.17
2023-05-16T13:03:30.891Z,6.03
2023-05-16T13:06:02.210Z,6.60
2023-05-16T13:08:32.091Z,6.50
2023-05-16T13:11:01.982Z,6.03
2023-05-16T13:16:04.308Z,7.47
2023-05-16T13:18:34.610Z,7.05
2023-05-16T13:21:04.935Z,7.03
2023-05-16T13:23:34.870Z,6.53
2023-05-16T13:26:05.621Z,7.87
2023-05-16T13:31:04.568Z,7.90
2023-05-16T13:33:36.163Z,7.27
2023-05-16T13:36:09.545Z,8.63
2023-05-16T13:38:38.336Z,9.23
2023-05-16T13:41:08.306Z,9.50
2023-05-16T13:43:38.247Z,9.37
2023-05-16T13:46:08.032Z,9.53
2023-05-16T13:48:37.944Z,10.30
2023-05-16T13:51:11.495Z,11.20
2023-05-16T13:53:41.450Z,9.63
2023-05-16T13:56:11.396Z,8.65
2023-05-16T13:58:52.821Z,10.27
2023-05-16T14:01:13.829Z,10.23
2023-05-16T14:06:13.217Z,9.85
2023-05-16T14:08:43.026Z,9.33
2023-05-16T14:11:12.911Z,9.48
2023-05-16T14:13:43.220Z,10.63
2023-05-16T14:16:13.077Z,10.30
2023-05-16T14:18:43.040Z,10.70
2023-05-16T14:21:13.374Z,10.48
2023-05-16T14:23:43.193Z,10.67
2023-05-16T14:26:13.023Z,10.03
2023-05-16T14:28:42.920Z,10.57
2023-05-16T14:31:12.671Z,9.93
2023-05-16T14:33:43.947Z,10.73
2023-05-16T14:36:14.462Z,10.43
2023-05-16T14:38:44.917Z,10.57
2023-05-16T14:41:15.076Z,10.82
2023-05-16T14:43:46.171Z,10.33
2023-05-16T14:46:17.272Z,11.55
2023-05-16T14:48:47.193Z,10.33
2023-05-16T14:51:17.005Z,9.03
2023-05-16T14:53:47.318Z,9.83
2023-05-16T14:56:17.274Z,10.48
2023-05-16T14:58:46.962Z,9.07
2023-05-16T15:01:17.391Z,9.10
2023-05-16T15:03:55.508Z,8.73
2023-05-16T15:06:18.640Z,8.83
2023-05-16T15:08:48.546Z,8.60
2023-05-16T15:11:19.607Z,8.87
2023-05-16T15:13:49.183Z,8.75
2023-05-16T15:16:19.191Z,9.67
2023-05-16T15:18:49.119Z,9.80
2023-05-16T15:21:19.648Z,8.68
2023-05-16T15:23:50.087Z,9.93
2023-05-16T15:26:21.124Z,9.45
2023-05-16T15:28:51.118Z,8.63
2023-05-16T15:31:21.050Z,9.28
2023-05-16T15:33:51.073Z,9.60
2023-05-16T15:36:20.762Z,7.50
2023-05-16T15:38:51.013Z,8.67
2023-05-16T15:41:37.226Z,8.63
2023-05-16T15:43:53.455Z,8.17
2023-05-16T15:46:23.396Z,8.50
2023-05-16T15:48:53.503Z,9.47
2023-05-16T15:51:23.455Z,8.40
2023-05-16T15:53:54.050Z,8.45
2023-05-16T15:56:23.674Z,9.33
2023-05-16T15:58:54.976Z,9.73
2023-05-16T16:03:53.639Z,9.10
2023-05-16T16:06:23.395Z,8.90
2023-05-16T16:08:53.557Z,10.27
2023-05-16T16:11:24.887Z,8.33
2023-05-16T16:13:54.781Z,8.53
2023-05-16T16:16:24.711Z,10.00
2023-05-16T16:18:55.166Z,10.20
2023-05-16T16:21:24.833Z,8.97
2023-05-16T16:23:56.228Z,8.93
2023-05-16T16:26:26.660Z,9.27
2023-05-16T16:28:56.874Z,8.00
2023-05-16T16:31:26.941Z,8.33
2023-05-16T16:33:58.728Z,8.47
2023-05-16T16:36:29.948Z,7.40
2023-05-16T16:39:00.294Z,6.50
2023-05-16T16:41:29.932Z,6.80
2023-05-16T16:43:59.850Z,6.57
2023-05-16T16:46:29.913Z,6.37
2023-05-16T16:48:59.807Z,6.13
2023-05-16T16:51:31.418Z,6.03
2023-05-16T16:54:01.292Z,6.10
2023-05-16T16:56:31.513Z,6.07
2023-05-16T16:59:01.686Z,6.20
2023-05-16T17:01:32.831Z,5.90
2023-05-16T17:04:02.955Z,5.05
2023-05-16T17:06:32.783Z,6.03
2023-05-16T17:09:04.997Z,6.10
2023-05-16T17:11:37.159Z,5.67
2023-05-16T17:14:07.438Z,5.43
2023-05-16T17:16:38.451Z,5.87
2023-05-16T17:19:09.156Z,6.25
2023-05-16T17:21:44.417Z,5.78
2023-05-16T17:24:14.076Z,6.40
2023-05-16T17:26:44.165Z,6.33
2023-05-16T17:29:14.031Z,5.37
2023-05-16T17:31:43.840Z,5.57
2023-05-16T17:34:13.928Z,6.27
2023-05-16T17:36:43.874Z,5.60
2023-05-16T17:39:14.840Z,5.83
2023-05-16T17:41:44.614Z,6.42
2023-05-16T17:44:14.350Z,5.67
2023-05-16T17:46:44.293Z,5.33
2023-05-16T17:49:14.957Z,6.60
2023-05-16T17:51:52.931Z,7.12
2023-05-16T17:54:24.102Z,6.00
2023-05-16T17:59:23.175Z,6.87
2023-05-16T18:01:54.432Z,6.97
2023-05-16T18:04:25.641Z,6.95
2023-05-16T18:06:57.333Z,8.03
2023-05-16T18:09:28.094Z,7.20
2023-05-16T18:11:58.450Z,7.00
2023-05-16T18:14:28.459Z,9.13
2023-05-16T18:16:58.346Z,7.77
2023-05-16T18:19:28.313Z,7.80
2023-05-16T18:21:59.588Z,7.97
2023-05-16T18:24:29.466Z,8.70
2023-05-16T18:27:01.488Z,7.80
2023-05-16T18:29:31.827Z,8.03
2023-05-16T18:32:01.489Z,9.23
2023-05-16T18:34:31.558Z,9.57
2023-05-16T18:37:01.718Z,9.08
2023-05-16T18:39:31.811Z,10.33
2023-05-16T18:42:01.990Z,11.97
2023-05-16T18:44:32.174Z,10.97
2023-05-16T18:47:02.471Z,8.70
2023-05-16T18:49:33.929Z,9.80
2023-05-16T18:52:05.941Z,10.80
2023-05-16T18:54:39.688Z,10.50
2023-05-16T18:57:09.612Z,10.83
2023-05-16T18:59:39.516Z,10.63
2023-05-16T19:02:09.559Z,10.97
2023-05-16T19:04:39.664Z,10.63
2023-05-16T19:07:09.622Z,9.87
2023-05-16T19:09:40.535Z,10.83
2023-05-16T19:12:13.420Z,11.57
2023-05-16T19:14:43.384Z,11.73
2023-05-16T19:17:13.267Z,9.60
2023-05-16T19:19:43.285Z,10.90
2023-05-16T19:22:13.132Z,10.97
2023-05-16T19:24:43.035Z,11.97
2023-05-16T19:27:13.873Z,11.43
2023-05-16T19:29:43.854Z,11.68
2023-05-16T19:32:13.512Z,11.90
2023-05-16T19:34:43.684Z,11.97
2023-05-16T19:37:13.557Z,11.88
2023-05-16T19:39:43.453Z,12.17
2023-05-16T19:42:13.327Z,12.07
2023-05-16T19:44:43.282Z,11.50
2023-05-16T19:47:13.083Z,13.97
2023-05-16T19:49:43.124Z,10.50
2023-05-16T19:52:13.370Z,12.30
2023-05-16T19:54:43.702Z,11.90
2023-05-16T19:57:13.296Z,10.53
2023-05-16T19:59:43.175Z,11.20
2023-05-16T20:02:13.031Z,12.13
2023-05-16T20:04:43.335Z,10.27
2023-05-16T20:07:13.306Z,10.90
2023-05-16T20:09:43.238Z,10.80
2023-05-16T20:12:12.998Z,10.10
2023-05-16T20:14:43.124Z,10.63
2023-05-16T20:17:12.692Z,10.90
2023-05-16T20:19:44.029Z,11.63
2023-05-16T20:22:14.098Z,11.03
2023-05-16T20:24:43.925Z,10.17
2023-05-16T20:27:13.665Z,9.60
2023-05-16T20:29:43.541Z,8.03
2023-05-16T20:32:13.140Z,8.97
2023-05-16T20:34:43.018Z,10.00
2023-05-16T20:37:12.819Z,8.63
2023-05-16T20:39:43.616Z,8.97
2023-05-16T20:42:13.500Z,8.93
2023-05-16T20:44:44.091Z,8.80
2023-05-16T20:47:13.697Z,9.58
2023-05-16T20:49:43.570Z,9.50
2023-05-16T20:52:13.478Z,7.55
2023-05-16T20:54:43.330Z,8.90
2023-05-16T20:57:13.057Z,8.73
2023-05-16T20:59:42.936Z,8.47
2023-05-16T21:02:12.648Z,9.53
2023-05-16T21:04:42.606Z,8.30
2023-05-16T21:07:12.244Z,8.47
2023-05-16T21:09:42.124Z,9.33
2023-05-16T21:12:11.887Z,7.90
2023-05-16T21:14:43.469Z,9.10
2023-05-16T21:17:13.131Z,8.50
2023-05-16T21:19:44.922Z,7.90
2023-05-16T21:22:15.149Z,7.47
2023-05-16T21:24:45.308Z,7.47
2023-05-16T21:27:15.056Z,7.93
2023-05-16T21:29:45.152Z,8.03
2023-05-16T21:32:16.283Z,6.70
2023-05-16T21:34:46.164Z,7.95
2023-05-16T21:37:16.856Z,7.70
2023-05-16T21:39:46.409Z,7.10
2023-05-16T21:42:16.004Z,7.07
2023-05-16T21:44:45.999Z,7.07
2023-05-16T21:47:16.969Z,6.83
2023-05-16T21:49:46.812Z,7.53
2023-05-16T21:52:16.825Z,7.33
2023-05-16T21:54:48.335Z,7.20
2023-05-16T21:57:18.970Z,7.12
2023-05-16T21:59:50.544Z,7.95
2023-05-16T22:02:21.825Z,7.17
2023-05-16T22:04:55.554Z,7.33
2023-05-16T22:07:27.106Z,6.17
2023-05-16T22:09:57.565Z,7.40
2023-05-16T22:12:28.455Z,6.53
2023-05-16T22:14:58.620Z,6.83
2023-05-16T22:17:28.581Z,6.87
2023-05-16T22:19:58.911Z,7.53
2023-05-16T22:22:29.042Z,6.83
2023-05-16T22:24:58.906Z,6.03
2023-05-16T22:27:28.794Z,6.80
2023-05-16T22:29:58.653Z,7.43
2023-05-16T22:32:28.603Z,7.10
2023-05-16T22:34:58.568Z,6.43
2023-05-16T22:37:28.338Z,6.90
2023-05-16T22:39:58.195Z,5.90
2023-05-16T22:42:28.087Z,5.57
2023-05-16T22:44:58.029Z,6.13
2023-05-16T22:47:28.939Z,6.35
2023-05-16T22:49:58.805Z,6.45
2023-05-16T22:52:28.738Z,6.83
2023-05-16T22:55:00.649Z,6.60
2023-05-16T23:00:00.355Z,5.78
2023-05-16T23:02:30.315Z,5.95
2023-05-16T23:05:00.313Z,5.27
2023-05-16T23:07:30.318Z,5.80
2023-05-16T23:10:00.187Z,5.37
2023-05-16T23:12:30.104Z,6.17
2023-05-16T23:15:00.396Z,5.27
2023-05-16T23:17:30.069Z,5.30
2023-05-16T23:19:59.927Z,5.07
2023-05-16T23:22:30.141Z,5.50
2023-05-16T23:25:00.054Z,5.07
2023-05-16T23:27:29.994Z,5.70
2023-05-16T23:29:59.834Z,5.22
2023-05-16T23:32:30.373Z,5.43
2023-05-16T23:35:01.265Z,4.67
2023-05-16T23:37:32.106Z,4.60
2023-05-16T23:40:01.764Z,4.35
2023-05-16T23:42:31.650Z,4.37
2023-05-16T23:45:01.827Z,4.80
2023-05-16T23:47:31.791Z,5.60
2023-05-16T23:50:01.746Z,5.07
2023-05-16T23:52:31.629Z,5.90
2023-05-16T23:55:01.762Z,5.97
2023-05-16T23:57:31.319Z,5.57
